Archival Weather

Chicago O'Hare International

Chicago, Illinois (KORD)

Report from: Monday, January 23, 2023 10:51 PM CST
Current time: Thursday, July 18, 2024 10:34 PM CDT

Current weather – Weather history – Daily summaries
Weather forecast

Temperature-1.7°C (28.9°F)
Wind chill-7.7°C (18.1°F)
Dew point-5.0°C (23.0°F)
Winds 12 kts (6.2 m/s, 13.8 mph) West-Southwest (250°)
Wind gusts 19 kts (9.8 m/s, 21.9 mph)
Peak wind 26 kts (13.4 m/s, 29.9 mph) West-Southwest (250°) at 04:06
Visibility10 mi. (16.1 km)
Clouds Ceiling: Broken clouds 1,600 ft. (488 m)
Overcast 4,000 ft. (1,219 m)
Altimeter30.08 in.Hg (1019 mB)
Relative humidity78 %
Density altitude-2,195 ft. (-669 m)
Sea-level pressure102.0 kPa (1020 mB, 30.11 in.Hg)
Remarks Automated weather observing station with precipitation discriminator
Flight conditions Marginal Visual Meteorological Conditions
Raw dataKORD 240451Z 25012G19KT 10SM BKN016 OVC040 M02/M05 A3008 RMK AO2 PK WND 25026/0406 SLP195 T10171050
An error has occurred. This application may no longer respond until reloaded. Reload 🗙